sensor_id;sensor_type;location;lat;lon;timestamp;temperature;humidity
39347;DHT22;26262;49.836;6.632;2023-01-04T00:01:15;7.20;99.90
39347;DHT22;26262;49.836;6.632;2023-01-04T00:03:41;7.30;99.90
39347;DHT22;26262;49.836;6.632;2023-01-04T00:06:08;7.20;99.90
39347;DHT22;26262;49.836;6.632;2023-01-04T00:08:34;7.20;99.90
39347;DHT22;26262;49.836;6.632;2023-01-04T00:11:04;7.20;99.90
39347;DHT22;26262;49.836;6.632;2023-01-04T00:13:31;7.20;99.90
39347;DHT22;26262;49.836;6.632;2023-01-04T00:15:57;7.20;99.90
39347;DHT22;26262;49.836;6.632;2023-01-04T00:18:23;7.30;99.90
39347;DHT22;26262;49.836;6.632;2023-01-04T00:20:48;7.40;99.90
39347;DHT22;26262;49.836;6.632;2023-01-04T00:23:14;7.30;99.90
39347;DHT22;26262;49.836;6.632;2023-01-04T00:25:39;7.30;99.90
39347;DHT22;26262;49.836;6.632;2023-01-04T00:28:05;7.30;99.90
39347;DHT22;26262;49.836;6.632;2023-01-04T00:30:30;7.20;99.90
39347;DHT22;26262;49.836;6.632;2023-01-04T00:32:56;7.20;99.90
39347;DHT22;26262;49.836;6.632;2023-01-04T00:35:22;7.20;99.90
39347;DHT22;26262;49.836;6.632;2023-01-04T00:37:48;7.30;99.90
39347;DHT22;26262;49.836;6.632;2023-01-04T00:40:13;7.30;99.90
39347;DHT22;26262;49.836;6.632;2023-01-04T00:42:39;7.30;99.90
39347;DHT22;26262;49.836;6.632;2023-01-04T00:45:05;7.40;99.90
39347;DHT22;26262;49.836;6.632;2023-01-04T00:47:30;7.40;99.90
39347;DHT22;26262;49.836;6.632;2023-01-04T00:49:56;7.40;99.90
39347;DHT22;26262;49.836;6.632;2023-01-04T00:52:21;7.40;99.90
39347;DHT22;26262;49.836;6.632;2023-01-04T00:54:47;7.30;99.90
39347;DHT22;26262;49.836;6.632;2023-01-04T00:57:12;7.30;99.90
39347;DHT22;26262;49.836;6.632;2023-01-04T00:59:38;7.30;99.90
39347;DHT22;26262;49.836;6.632;2023-01-04T01:02:03;7.30;99.90
39347;DHT22;26262;49.836;6.632;2023-01-04T01:04:29;7.30;99.90
39347;DHT22;26262;49.836;6.632;2023-01-04T01:06:54;7.40;99.90
39347;DHT22;26262;49.836;6.632;2023-01-04T01:09:20;7.40;99.90
39347;DHT22;26262;49.836;6.632;2023-01-04T01:11:50;7.40;99.90
39347;DHT22;26262;49.836;6.632;2023-01-04T01:14:18;7.40;99.90
39347;DHT22;26262;49.836;6.632;2023-01-04T01:16:44;7.40;99.90
39347;DHT22;26262;49.836;6.632;2023-01-04T01:19:10;7.40;99.90
39347;DHT22;26262;49.836;6.632;2023-01-04T01:21:35;7.30;99.90
39347;DHT22;26262;49.836;6.632;2023-01-04T01:24:02;7.40;99.90
39347;DHT22;26262;49.836;6.632;2023-01-04T01:26:28;7.50;99.90
39347;DHT22;26262;49.836;6.632;2023-01-04T01:28:54;7.50;99.90
39347;DHT22;26262;49.836;6.632;2023-01-04T01:31:22;7.40;99.90
39347;DHT22;26262;49.836;6.632;2023-01-04T01:33:49;7.40;99.90
39347;DHT22;26262;49.836;6.632;2023-01-04T01:36:17;7.40;99.90
39347;DHT22;26262;49.836;6.632;2023-01-04T01:38:43;7.50;99.90
39347;DHT22;26262;49.836;6.632;2023-01-04T01:41:19;7.50;99.90
39347;DHT22;26262;49.836;6.632;2023-01-04T01:43:48;7.50;99.90
39347;DHT22;26262;49.836;6.632;2023-01-04T01:48:55;7.50;99.90
39347;DHT22;26262;49.836;6.632;2023-01-04T01:51:21;7.50;99.90
39347;DHT22;26262;49.836;6.632;2023-01-04T01:53:50;7.50;99.90
39347;DHT22;26262;49.836;6.632;2023-01-04T01:56:18;7.40;99.90
39347;DHT22;26262;49.836;6.632;2023-01-04T01:58:48;7.50;99.90
39347;DHT22;26262;49.836;6.632;2023-01-04T02:01:15;7.50;99.90
39347;DHT22;26262;49.836;6.632;2023-01-04T02:03:42;7.50;99.90
39347;DHT22;26262;49.836;6.632;2023-01-04T02:06:12;7.50;99.90
39347;DHT22;26262;49.836;6.632;2023-01-04T02:08:40;7.50;99.90
39347;DHT22;26262;49.836;6.632;2023-01-04T02:11:07;7.50;99.90
39347;DHT22;26262;49.836;6.632;2023-01-04T02:13:34;7.50;99.90
39347;DHT22;26262;49.836;6.632;2023-01-04T02:16:44;7.60;99.90
39347;DHT22;26262;49.836;6.632;2023-01-04T02:36:57;7.60;99.90
39347;DHT22;26262;49.836;6.632;2023-01-04T02:39:39;7.70;99.90
39347;DHT22;26262;49.836;6.632;2023-01-04T02:43:33;7.70;99.90
39347;DHT22;26262;49.836;6.632;2023-01-04T02:45:54;7.70;99.90
39347;DHT22;26262;49.836;6.632;2023-01-04T02:48:22;7.70;99.90
39347;DHT22;26262;49.836;6.632;2023-01-04T02:53:52;7.80;99.90
39347;DHT22;26262;49.836;6.632;2023-01-04T02:56:23;7.80;99.90
39347;DHT22;26262;49.836;6.632;2023-01-04T03:01:55;7.80;99.90
39347;DHT22;26262;49.836;6.632;2023-01-04T03:04:59;7.80;99.90
39347;DHT22;26262;49.836;6.632;2023-01-04T03:07:54;7.80;99.90
39347;DHT22;26262;49.836;6.632;2023-01-04T03:10:43;7.80;99.90
39347;DHT22;26262;49.836;6.632;2023-01-04T03:13:18;7.90;99.90
39347;DHT22;26262;49.836;6.632;2023-01-04T03:15:53;7.80;99.90
39347;DHT22;26262;49.836;6.632;2023-01-04T03:18:27;7.80;99.90
39347;DHT22;26262;49.836;6.632;2023-01-04T03:20:55;7.80;99.90
39347;DHT22;26262;49.836;6.632;2023-01-04T03:23:26;7.80;99.90
39347;DHT22;26262;49.836;6.632;2023-01-04T03:26:25;7.80;99.90
39347;DHT22;26262;49.836;6.632;2023-01-04T03:29:24;7.80;99.90
39347;DHT22;26262;49.836;6.632;2023-01-04T03:32:13;7.80;99.90
39347;DHT22;26262;49.836;6.632;2023-01-04T03:34:59;7.80;99.90
39347;DHT22;26262;49.836;6.632;2023-01-04T03:37:55;7.90;99.90
39347;DHT22;26262;49.836;6.632;2023-01-04T03:40:45;7.90;99.90
39347;DHT22;26262;49.836;6.632;2023-01-04T03:43:38;7.90;99.90
39347;DHT22;26262;49.836;6.632;2023-01-04T03:51:48;7.80;99.90
39347;DHT22;26262;49.836;6.632;2023-01-04T03:54:26;7.80;99.90
39347;DHT22;26262;49.836;6.632;2023-01-04T03:56:54;7.80;99.90
39347;DHT22;26262;49.836;6.632;2023-01-04T03:59:22;7.90;99.90
39347;DHT22;26262;49.836;6.632;2023-01-04T04:01:48;7.90;99.90
39347;DHT22;26262;49.836;6.632;2023-01-04T04:04:14;7.80;99.90
39347;DHT22;26262;49.836;6.632;2023-01-04T04:06:58;7.80;99.90
39347;DHT22;26262;49.836;6.632;2023-01-04T04:09:42;7.80;99.90
39347;DHT22;26262;49.836;6.632;2023-01-04T04:12:08;7.80;99.90
39347;DHT22;26262;49.836;6.632;2023-01-04T04:14:34;7.80;99.90
39347;DHT22;26262;49.836;6.632;2023-01-04T04:16:59;7.80;99.90
39347;DHT22;26262;49.836;6.632;2023-01-04T04:19:25;7.80;99.90
39347;DHT22;26262;49.836;6.632;2023-01-04T04:21:50;7.70;99.90
39347;DHT22;26262;49.836;6.632;2023-01-04T04:24:21;7.70;99.90
39347;DHT22;26262;49.836;6.632;2023-01-04T04:26:49;7.80;99.90
39347;DHT22;26262;49.836;6.632;2023-01-04T04:29:14;7.70;99.90
39347;DHT22;26262;49.836;6.632;2023-01-04T04:31:40;7.70;99.90
39347;DHT22;26262;49.836;6.632;2023-01-04T04:34:05;7.70;99.90
39347;DHT22;26262;49.836;6.632;2023-01-04T04:36:31;7.70;99.90
39347;DHT22;26262;49.836;6.632;2023-01-04T04:38:57;7.60;99.90
39347;DHT22;26262;49.836;6.632;2023-01-04T04:41:22;7.60;99.90
39347;DHT22;26262;49.836;6.632;2023-01-04T04:44:04;7.60;99.90
39347;DHT22;26262;49.836;6.632;2023-01-04T04:46:30;7.60;99.90
39347;DHT22;26262;49.836;6.632;2023-01-04T04:48:55;7.60;99.90
39347;DHT22;26262;49.836;6.632;2023-01-04T04:51:21;7.70;99.90
39347;DHT22;26262;49.836;6.632;2023-01-04T04:53:47;7.70;99.90
39347;DHT22;26262;49.836;6.632;2023-01-04T04:56:12;7.70;99.90
39347;DHT22;26262;49.836;6.632;2023-01-04T04:58:38;7.70;99.90
39347;DHT22;26262;49.836;6.632;2023-01-04T05:01:03;7.70;99.90
39347;DHT22;26262;49.836;6.632;2023-01-04T05:03:29;7.60;99.90
39347;DHT22;26262;49.836;6.632;2023-01-04T05:05:55;7.60;99.90
39347;DHT22;26262;49.836;6.632;2023-01-04T05:08:20;7.60;99.90
39347;DHT22;26262;49.836;6.632;2023-01-04T05:10:46;7.60;99.90
39347;DHT22;26262;49.836;6.632;2023-01-04T05:13:12;7.60;99.90
39347;DHT22;26262;49.836;6.632;2023-01-04T05:15:43;7.60;99.90
39347;DHT22;26262;49.836;6.632;2023-01-04T05:18:11;7.60;99.90
39347;DHT22;26262;49.836;6.632;2023-01-04T05:20:37;7.60;99.90
39347;DHT22;26262;49.836;6.632;2023-01-04T05:23:04;7.60;99.90
39347;DHT22;26262;49.836;6.632;2023-01-04T05:25:30;7.60;99.90
39347;DHT22;26262;49.836;6.632;2023-01-04T05:27:55;7.70;99.90
39347;DHT22;26262;49.836;6.632;2023-01-04T05:30:21;7.60;99.90
39347;DHT22;26262;49.836;6.632;2023-01-04T05:33:06;7.70;99.90
39347;DHT22;26262;49.836;6.632;2023-01-04T05:35:32;7.60;99.90
39347;DHT22;26262;49.836;6.632;2023-01-04T05:37:58;7.60;99.90
39347;DHT22;26262;49.836;6.632;2023-01-04T05:40:23;7.60;99.90
39347;DHT22;26262;49.836;6.632;2023-01-04T05:42:49;7.70;99.90
39347;DHT22;26262;49.836;6.632;2023-01-04T05:45:15;7.70;99.90
39347;DHT22;26262;49.836;6.632;2023-01-04T05:47:42;7.70;99.90
39347;DHT22;26262;49.836;6.632;2023-01-04T05:50:08;7.70;99.90
39347;DHT22;26262;49.836;6.632;2023-01-04T05:52:34;7.60;99.90
39347;DHT22;26262;49.836;6.632;2023-01-04T05:55:00;7.70;99.90
39347;DHT22;26262;49.836;6.632;2023-01-04T05:57:26;7.70;99.90
39347;DHT22;26262;49.836;6.632;2023-01-04T05:59:51;7.70;99.90
39347;DHT22;26262;49.836;6.632;2023-01-04T06:02:22;7.70;99.90
39347;DHT22;26262;49.836;6.632;2023-01-04T06:04:49;7.70;99.90
39347;DHT22;26262;49.836;6.632;2023-01-04T06:07:15;7.70;99.90
39347;DHT22;26262;49.836;6.632;2023-01-04T06:09:41;7.60;99.90
39347;DHT22;26262;49.836;6.632;2023-01-04T06:12:07;7.60;99.90
39347;DHT22;26262;49.836;6.632;2023-01-04T06:14:33;7.60;99.90
39347;DHT22;26262;49.836;6.632;2023-01-04T06:16:59;7.60;99.90
39347;DHT22;26262;49.836;6.632;2023-01-04T06:19:25;7.60;99.90
39347;DHT22;26262;49.836;6.632;2023-01-04T06:21:51;7.60;99.90
39347;DHT22;26262;49.836;6.632;2023-01-04T06:24:16;7.70;99.90
39347;DHT22;26262;49.836;6.632;2023-01-04T06:26:42;7.70;99.90
39347;DHT22;26262;49.836;6.632;2023-01-04T06:29:08;7.70;99.90
39347;DHT22;26262;49.836;6.632;2023-01-04T06:31:34;7.70;99.90
39347;DHT22;26262;49.836;6.632;2023-01-04T06:33:59;7.70;99.90
39347;DHT22;26262;49.836;6.632;2023-01-04T06:36:25;7.80;99.90
39347;DHT22;26262;49.836;6.632;2023-01-04T06:38:51;7.70;99.90
39347;DHT22;26262;49.836;6.632;2023-01-04T06:41:16;7.70;99.90
39347;DHT22;26262;49.836;6.632;2023-01-04T06:43:42;7.70;99.90
39347;DHT22;26262;49.836;6.632;2023-01-04T06:46:08;7.80;99.90
39347;DHT22;26262;49.836;6.632;2023-01-04T06:48:33;7.80;99.90
39347;DHT22;26262;49.836;6.632;2023-01-04T06:50:59;7.80;99.90
39347;DHT22;26262;49.836;6.632;2023-01-04T06:53:25;7.90;99.90
39347;DHT22;26262;49.836;6.632;2023-01-04T06:55:50;7.90;99.90
39347;DHT22;26262;49.836;6.632;2023-01-04T06:58:16;7.90;99.90
39347;DHT22;26262;49.836;6.632;2023-01-04T07:00:41;8.00;99.90
39347;DHT22;26262;49.836;6.632;2023-01-04T07:03:07;8.00;99.90
39347;DHT22;26262;49.836;6.632;2023-01-04T07:05:33;8.00;99.90
39347;DHT22;26262;49.836;6.632;2023-01-04T07:07:59;7.90;99.90
39347;DHT22;26262;49.836;6.632;2023-01-04T07:10:25;8.00;99.90
39347;DHT22;26262;49.836;6.632;2023-01-04T07:12:51;8.00;99.90
39347;DHT22;26262;49.836;6.632;2023-01-04T07:15:17;8.00;99.90
39347;DHT22;26262;49.836;6.632;2023-01-04T07:17:42;8.00;99.90
39347;DHT22;26262;49.836;6.632;2023-01-04T07:20:08;8.00;99.90
39347;DHT22;26262;49.836;6.632;2023-01-04T07:22:34;8.00;99.90
39347;DHT22;26262;49.836;6.632;2023-01-04T07:24:59;8.00;99.90
39347;DHT22;26262;49.836;6.632;2023-01-04T07:27:25;8.10;99.90
39347;DHT22;26262;49.836;6.632;2023-01-04T07:29:50;8.00;99.90
39347;DHT22;26262;49.836;6.632;2023-01-04T07:32:16;8.00;99.90
39347;DHT22;26262;49.836;6.632;2023-01-04T07:34:41;8.00;99.90
39347;DHT22;26262;49.836;6.632;2023-01-04T07:37:08;8.00;99.90
39347;DHT22;26262;49.836;6.632;2023-01-04T07:39:34;8.00;99.90
39347;DHT22;26262;49.836;6.632;2023-01-04T07:41:59;8.00;99.90
39347;DHT22;26262;49.836;6.632;2023-01-04T07:44:25;8.00;99.90
39347;DHT22;26262;49.836;6.632;2023-01-04T07:46:53;8.00;99.90
39347;DHT22;26262;49.836;6.632;2023-01-04T07:49:19;8.00;99.90
39347;DHT22;26262;49.836;6.632;2023-01-04T07:51:47;8.10;99.90
39347;DHT22;26262;49.836;6.632;2023-01-04T07:54:13;8.10;99.90
39347;DHT22;26262;49.836;6.632;2023-01-04T07:56:39;8.10;99.90
39347;DHT22;26262;49.836;6.632;2023-01-04T07:59:06;8.10;99.90
39347;DHT22;26262;49.836;6.632;2023-01-04T08:01:32;8.10;99.90
39347;DHT22;26262;49.836;6.632;2023-01-04T08:04:06;8.10;99.90
39347;DHT22;26262;49.836;6.632;2023-01-04T08:06:32;8.20;99.90
39347;DHT22;26262;49.836;6.632;2023-01-04T08:08:59;8.20;99.90
39347;DHT22;26262;49.836;6.632;2023-01-04T08:11:25;8.20;99.90
39347;DHT22;26262;49.836;6.632;2023-01-04T08:13:51;8.20;99.90
39347;DHT22;26262;49.836;6.632;2023-01-04T08:16:22;8.20;99.90
39347;DHT22;26262;49.836;6.632;2023-01-04T08:18:53;8.10;99.90
39347;DHT22;26262;49.836;6.632;2023-01-04T08:21:18;8.20;99.90
39347;DHT22;26262;49.836;6.632;2023-01-04T08:23:44;8.20;99.90
39347;DHT22;26262;49.836;6.632;2023-01-04T08:26:13;8.20;99.90
39347;DHT22;26262;49.836;6.632;2023-01-04T08:28:38;8.20;99.90
39347;DHT22;26262;49.836;6.632;2023-01-04T08:31:06;8.20;99.90
39347;DHT22;26262;49.836;6.632;2023-01-04T08:33:34;8.30;99.90
39347;DHT22;26262;49.836;6.632;2023-01-04T08:39:03;8.20;99.90
39347;DHT22;26262;49.836;6.632;2023-01-04T08:41:30;8.20;99.90
39347;DHT22;26262;49.836;6.632;2023-01-04T08:43:56;8.30;99.90
39347;DHT22;26262;49.836;6.632;2023-01-04T08:46:22;8.30;99.90
39347;DHT22;26262;49.836;6.632;2023-01-04T08:48:47;8.40;99.90
39347;DHT22;26262;49.836;6.632;2023-01-04T08:51:14;8.40;99.90
39347;DHT22;26262;49.836;6.632;2023-01-04T08:53:40;8.40;99.90
39347;DHT22;26262;49.836;6.632;2023-01-04T08:56:07;8.40;99.90
39347;DHT22;26262;49.836;6.632;2023-01-04T08:58:34;8.40;99.90
39347;DHT22;26262;49.836;6.632;2023-01-04T09:01:05;8.50;99.90
39347;DHT22;26262;49.836;6.632;2023-01-04T09:03:31;8.50;99.90
39347;DHT22;26262;49.836;6.632;2023-01-04T09:06:09;8.60;99.90
39347;DHT22;26262;49.836;6.632;2023-01-04T09:08:36;8.50;99.90
39347;DHT22;26262;49.836;6.632;2023-01-04T09:11:28;8.40;99.90
39347;DHT22;26262;49.836;6.632;2023-01-04T09:13:55;8.50;99.90
39347;DHT22;26262;49.836;6.632;2023-01-04T09:16:21;8.50;99.90
39347;DHT22;26262;49.836;6.632;2023-01-04T09:18:47;8.50;99.90
39347;DHT22;26262;49.836;6.632;2023-01-04T09:21:15;8.50;99.90
39347;DHT22;26262;49.836;6.632;2023-01-04T09:23:42;8.60;99.90
39347;DHT22;26262;49.836;6.632;2023-01-04T09:26:16;8.60;99.90
39347;DHT22;26262;49.836;6.632;2023-01-04T09:28:41;8.60;99.90
39347;DHT22;26262;49.836;6.632;2023-01-04T09:31:16;8.60;99.90
39347;DHT22;26262;49.836;6.632;2023-01-04T09:33:43;8.60;99.90
39347;DHT22;26262;49.836;6.632;2023-01-04T09:36:13;8.60;99.90
39347;DHT22;26262;49.836;6.632;2023-01-04T09:38:39;8.70;99.90
39347;DHT22;26262;49.836;6.632;2023-01-04T09:41:17;8.70;99.90
39347;DHT22;26262;49.836;6.632;2023-01-04T09:43:48;8.70;99.90
39347;DHT22;26262;49.836;6.632;2023-01-04T09:46:28;8.70;99.90
39347;DHT22;26262;49.836;6.632;2023-01-04T09:49:28;8.70;99.90
39347;DHT22;26262;49.836;6.632;2023-01-04T09:52:01;8.80;99.90
39347;DHT22;26262;49.836;6.632;2023-01-04T09:57:17;8.90;99.90
39347;DHT22;26262;49.836;6.632;2023-01-04T09:59:45;8.90;99.90
39347;DHT22;26262;49.836;6.632;2023-01-04T10:02:15;9.00;99.90
39347;DHT22;26262;49.836;6.632;2023-01-04T10:04:48;9.00;99.90
39347;DHT22;26262;49.836;6.632;2023-01-04T10:07:28;8.90;99.90
39347;DHT22;26262;49.836;6.632;2023-01-04T10:09:54;9.00;99.90
39347;DHT22;26262;49.836;6.632;2023-01-04T10:18:13;9.00;99.90
39347;DHT22;26262;49.836;6.632;2023-01-04T10:26:12;9.10;99.90
39347;DHT22;26262;49.836;6.632;2023-01-04T10:29:02;9.10;99.90
39347;DHT22;26262;49.836;6.632;2023-01-04T10:31:36;9.20;99.90
39347;DHT22;26262;49.836;6.632;2023-01-04T10:34:19;9.30;99.90
39347;DHT22;26262;49.836;6.632;2023-01-04T10:36:46;9.30;99.90
39347;DHT22;26262;49.836;6.632;2023-01-04T10:39:15;9.30;99.90
39347;DHT22;26262;49.836;6.632;2023-01-04T10:41:48;9.40;99.90
39347;DHT22;26262;49.836;6.632;2023-01-04T10:44:35;9.40;99.90
39347;DHT22;26262;49.836;6.632;2023-01-04T10:49:52;9.50;99.90
39347;DHT22;26262;49.836;6.632;2023-01-04T10:52:30;9.50;99.90
39347;DHT22;26262;49.836;6.632;2023-01-04T10:57:51;9.60;99.90
39347;DHT22;26262;49.836;6.632;2023-01-04T11:00:34;9.60;99.90
39347;DHT22;26262;49.836;6.632;2023-01-04T11:03:31;9.60;99.90
39347;DHT22;26262;49.836;6.632;2023-01-04T11:09:31;9.60;99.90
39347;DHT22;26262;49.836;6.632;2023-01-04T11:11:57;9.70;99.90
39347;DHT22;26262;49.836;6.632;2023-01-04T11:14:24;9.70;99.90
39347;DHT22;26262;49.836;6.632;2023-01-04T11:16:53;9.70;99.90
39347;DHT22;26262;49.836;6.632;2023-01-04T11:19:21;9.70;99.90
39347;DHT22;26262;49.836;6.632;2023-01-04T11:21:48;9.70;99.90
39347;DHT22;26262;49.836;6.632;2023-01-04T11:24:15;9.70;99.90
39347;DHT22;26262;49.836;6.632;2023-01-04T11:26:43;9.70;99.90
39347;DHT22;26262;49.836;6.632;2023-01-04T11:29:31;9.70;99.90
39347;DHT22;26262;49.836;6.632;2023-01-04T11:32:00;9.80;99.90
39347;DHT22;26262;49.836;6.632;2023-01-04T11:34:49;9.80;99.90
39347;DHT22;26262;49.836;6.632;2023-01-04T11:37:26;9.80;99.90
39347;DHT22;26262;49.836;6.632;2023-01-04T11:42:37;9.80;99.90
39347;DHT22;26262;49.836;6.632;2023-01-04T11:45:03;9.80;99.90
39347;DHT22;26262;49.836;6.632;2023-01-04T11:47:29;9.80;99.90
39347;DHT22;26262;49.836;6.632;2023-01-04T11:49:55;9.80;99.90
39347;DHT22;26262;49.836;6.632;2023-01-04T11:52:35;9.80;99.90
39347;DHT22;26262;49.836;6.632;2023-01-04T11:55:28;9.80;99.90
39347;DHT22;26262;49.836;6.632;2023-01-04T11:58:14;9.90;99.90
39347;DHT22;26262;49.836;6.632;2023-01-04T12:00:56;9.80;99.90
39347;DHT22;26262;49.836;6.632;2023-01-04T12:03:34;9.90;99.90
39347;DHT22;26262;49.836;6.632;2023-01-04T12:06:02;9.90;99.90
39347;DHT22;26262;49.836;6.632;2023-01-04T12:08:33;9.90;99.90
39347;DHT22;26262;49.836;6.632;2023-01-04T12:11:01;9.90;99.90
39347;DHT22;26262;49.836;6.632;2023-01-04T12:13:27;9.90;99.90
39347;DHT22;26262;49.836;6.632;2023-01-04T12:18:43;10.00;99.90
39347;DHT22;26262;49.836;6.632;2023-01-04T12:21:21;10.00;99.90
39347;DHT22;26262;49.836;6.632;2023-01-04T12:23:47;10.00;99.90
39347;DHT22;26262;49.836;6.632;2023-01-04T12:26:13;10.00;99.90
39347;DHT22;26262;49.836;6.632;2023-01-04T12:28:41;9.90;99.90
39347;DHT22;26262;49.836;6.632;2023-01-04T12:33:46;10.00;99.90
39347;DHT22;26262;49.836;6.632;2023-01-04T12:36:14;10.00;99.90
39347;DHT22;26262;49.836;6.632;2023-01-04T12:38:57;10.00;99.90
39347;DHT22;26262;49.836;6.632;2023-01-04T12:50:20;10.10;99.90
39347;DHT22;26262;49.836;6.632;2023-01-04T12:53:01;10.10;99.90
39347;DHT22;26262;49.836;6.632;2023-01-04T12:58:00;10.10;99.90
39347;DHT22;26262;49.836;6.632;2023-01-04T13:05:56;10.10;99.90
39347;DHT22;26262;49.836;6.632;2023-01-04T13:08:23;10.10;99.90
39347;DHT22;26262;49.836;6.632;2023-01-04T13:10:51;10.00;99.90
39347;DHT22;26262;49.836;6.632;2023-01-04T13:16:29;10.10;99.90
39347;DHT22;26262;49.836;6.632;2023-01-04T13:18:58;10.10;99.90
39347;DHT22;26262;49.836;6.632;2023-01-04T13:24:18;10.10;99.90
39347;DHT22;26262;49.836;6.632;2023-01-04T13:26:45;10.10;99.90
39347;DHT22;26262;49.836;6.632;2023-01-04T13:34:21;10.00;99.90
39347;DHT22;26262;49.836;6.632;2023-01-04T13:39:48;10.00;99.90
39347;DHT22;26262;49.836;6.632;2023-01-04T13:47:36;10.10;99.90
39347;DHT22;26262;49.836;6.632;2023-01-04T13:50:04;10.20;99.90
39347;DHT22;26262;49.836;6.632;2023-01-04T13:52:31;10.20;99.90
39347;DHT22;26262;49.836;6.632;2023-01-04T13:55:22;10.20;99.90
39347;DHT22;26262;49.836;6.632;2023-01-04T13:58:00;10.20;99.90
39347;DHT22;26262;49.836;6.632;2023-01-04T14:00:34;10.20;99.90
39347;DHT22;26262;49.836;6.632;2023-01-04T14:05:35;10.20;99.90
39347;DHT22;26262;49.836;6.632;2023-01-04T14:08:02;10.20;99.90
39347;DHT22;26262;49.836;6.632;2023-01-04T14:10:33;10.20;99.90
39347;DHT22;26262;49.836;6.632;2023-01-04T14:12:59;10.20;99.90
39347;DHT22;26262;49.836;6.632;2023-01-04T14:15:25;10.20;99.90
39347;DHT22;26262;49.836;6.632;2023-01-04T14:17:54;10.20;99.90
39347;DHT22;26262;49.836;6.632;2023-01-04T14:22:56;10.20;99.90
39347;DHT22;26262;49.836;6.632;2023-01-04T14:30:48;10.20;99.90
39347;DHT22;26262;49.836;6.632;2023-01-04T14:33:16;10.30;99.90
39347;DHT22;26262;49.836;6.632;2023-01-04T14:35:42;10.30;99.90
39347;DHT22;26262;49.836;6.632;2023-01-04T14:38:15;10.30;99.90
39347;DHT22;26262;49.836;6.632;2023-01-04T14:40:42;10.30;99.90
39347;DHT22;26262;49.836;6.632;2023-01-04T14:43:31;10.30;99.90
39347;DHT22;26262;49.836;6.632;2023-01-04T14:45:58;10.20;99.90
39347;DHT22;26262;49.836;6.632;2023-01-04T14:48:23;10.30;99.90
39347;DHT22;26262;49.836;6.632;2023-01-04T14:50:49;10.20;99.90
39347;DHT22;26262;49.836;6.632;2023-01-04T14:53:15;10.20;99.90
39347;DHT22;26262;49.836;6.632;2023-01-04T14:55:43;10.30;99.90
39347;DHT22;26262;49.836;6.632;2023-01-04T14:58:08;10.40;99.90
39347;DHT22;26262;49.836;6.632;2023-01-04T15:00:34;10.30;99.90
39347;DHT22;26262;49.836;6.632;2023-01-04T15:02:59;10.30;99.90
39347;DHT22;26262;49.836;6.632;2023-01-04T15:05:25;10.20;99.90
39347;DHT22;26262;49.836;6.632;2023-01-04T15:07:51;10.30;99.90
39347;DHT22;26262;49.836;6.632;2023-01-04T15:10:22;10.30;99.90
39347;DHT22;26262;49.836;6.632;2023-01-04T15:12:48;10.30;99.90
39347;DHT22;26262;49.836;6.632;2023-01-04T15:15:14;10.30;99.90
39347;DHT22;26262;49.836;6.632;2023-01-04T15:17:40;10.30;99.90
39347;DHT22;26262;49.836;6.632;2023-01-04T15:20:06;10.30;99.90
39347;DHT22;26262;49.836;6.632;2023-01-04T15:22:32;10.30;99.90
39347;DHT22;26262;49.836;6.632;2023-01-04T15:24:58;10.40;99.90
39347;DHT22;26262;49.836;6.632;2023-01-04T15:27:24;10.40;99.90
39347;DHT22;26262;49.836;6.632;2023-01-04T15:29:49;10.40;99.90
39347;DHT22;26262;49.836;6.632;2023-01-04T15:32:15;10.30;99.90
39347;DHT22;26262;49.836;6.632;2023-01-04T15:34:40;10.30;99.90
39347;DHT22;26262;49.836;6.632;2023-01-04T15:37:06;10.30;99.90
39347;DHT22;26262;49.836;6.632;2023-01-04T15:39:31;10.40;99.90
39347;DHT22;26262;49.836;6.632;2023-01-04T15:41:57;10.30;99.90
39347;DHT22;26262;49.836;6.632;2023-01-04T15:44:51;10.30;99.90
39347;DHT22;26262;49.836;6.632;2023-01-04T15:47:17;10.30;99.90
39347;DHT22;26262;49.836;6.632;2023-01-04T15:49:42;10.30;99.90
39347;DHT22;26262;49.836;6.632;2023-01-04T15:52:08;10.30;99.90
39347;DHT22;26262;49.836;6.632;2023-01-04T15:54:33;10.30;99.90
39347;DHT22;26262;49.836;6.632;2023-01-04T15:56:59;10.30;99.90
39347;DHT22;26262;49.836;6.632;2023-01-04T15:59:24;10.30;99.90
39347;DHT22;26262;49.836;6.632;2023-01-04T16:01:50;10.30;99.90
39347;DHT22;26262;49.836;6.632;2023-01-04T16:04:16;10.30;99.90
39347;DHT22;26262;49.836;6.632;2023-01-04T16:06:41;10.30;99.90
39347;DHT22;26262;49.836;6.632;2023-01-04T16:09:07;10.30;99.90
39347;DHT22;26262;49.836;6.632;2023-01-04T16:11:32;10.40;99.90
39347;DHT22;26262;49.836;6.632;2023-01-04T16:13:58;10.40;99.90
39347;DHT22;26262;49.836;6.632;2023-01-04T16:16:26;10.30;99.90
39347;DHT22;26262;49.836;6.632;2023-01-04T16:18:53;10.40;99.90
39347;DHT22;26262;49.836;6.632;2023-01-04T16:21:21;10.30;99.90
39347;DHT22;26262;49.836;6.632;2023-01-04T16:23:55;10.30;99.90
39347;DHT22;26262;49.836;6.632;2023-01-04T16:26:21;10.40;99.90
39347;DHT22;26262;49.836;6.632;2023-01-04T16:28:51;10.30;99.90
39347;DHT22;26262;49.836;6.632;2023-01-04T16:31:17;10.30;99.90
39347;DHT22;26262;49.836;6.632;2023-01-04T16:33:43;10.30;99.90
39347;DHT22;26262;49.836;6.632;2023-01-04T16:36:12;10.30;99.90
39347;DHT22;26262;49.836;6.632;2023-01-04T16:38:42;10.30;99.90
39347;DHT22;26262;49.836;6.632;2023-01-04T16:41:10;10.30;99.90
39347;DHT22;26262;49.836;6.632;2023-01-04T16:43:50;10.30;99.90
39347;DHT22;26262;49.836;6.632;2023-01-04T16:48:47;10.30;99.90
39347;DHT22;26262;49.836;6.632;2023-01-04T16:51:13;10.30;99.90
39347;DHT22;26262;49.836;6.632;2023-01-04T16:53:39;10.30;99.90
39347;DHT22;26262;49.836;6.632;2023-01-04T16:56:06;10.30;99.90
39347;DHT22;26262;49.836;6.632;2023-01-04T16:58:32;10.30;99.90
39347;DHT22;26262;49.836;6.632;2023-01-04T17:01:08;10.40;99.90
39347;DHT22;26262;49.836;6.632;2023-01-04T17:03:34;10.30;99.90
39347;DHT22;26262;49.836;6.632;2023-01-04T17:05:59;10.30;99.90
39347;DHT22;26262;49.836;6.632;2023-01-04T17:08:28;10.30;99.90
39347;DHT22;26262;49.836;6.632;2023-01-04T17:10:54;10.40;99.90
39347;DHT22;26262;49.836;6.632;2023-01-04T17:13:19;10.40;99.90
39347;DHT22;26262;49.836;6.632;2023-01-04T17:15:45;10.40;99.90
39347;DHT22;26262;49.836;6.632;2023-01-04T17:18:10;10.40;99.90
39347;DHT22;26262;49.836;6.632;2023-01-04T17:20:38;10.40;99.90
39347;DHT22;26262;49.836;6.632;2023-01-04T17:23:04;10.40;99.90
39347;DHT22;26262;49.836;6.632;2023-01-04T17:25:30;10.40;99.90
39347;DHT22;26262;49.836;6.632;2023-01-04T17:27:56;10.50;99.90
39347;DHT22;26262;49.836;6.632;2023-01-04T17:30:21;10.50;99.90
39347;DHT22;26262;49.836;6.632;2023-01-04T17:32:47;10.50;99.90
39347;DHT22;26262;49.836;6.632;2023-01-04T17:35:12;10.50;99.90
39347;DHT22;26262;49.836;6.632;2023-01-04T17:37:38;10.60;99.90
39347;DHT22;26262;49.836;6.632;2023-01-04T17:40:04;10.60;99.90
39347;DHT22;26262;49.836;6.632;2023-01-04T17:42:32;10.70;99.90
39347;DHT22;26262;49.836;6.632;2023-01-04T17:44:57;10.70;99.90
39347;DHT22;26262;49.836;6.632;2023-01-04T17:47:24;10.70;99.90
39347;DHT22;26262;49.836;6.632;2023-01-04T17:49:50;10.70;99.90
39347;DHT22;26262;49.836;6.632;2023-01-04T17:52:15;10.70;99.90